This is the latest recevied weather packets stored in our database for station/object WA7CUG. If no packets are shown the sender has not sent any weather packets the latest 1 day(s).
| Time | Temp. | Humidity | Pressure | Rain* | Wind** | Luminosity | Snow |
|---|---|---|---|---|---|---|---|
| 1778093603 | 25.56° C | 45% | 1012.1 hPa | 0 mm | - | 652 W/m² | - |
| 1778093300 | 25° C | 44% | 1012.2 hPa | 0 mm | - | 636 W/m² | - |
| 1778091482 | 24.44° C | 45% | 1012.5 hPa | 0 mm | - | 611 W/m² | - |
| 1778090572 | 23.89° C | 47% | 1012.4 hPa | 0 mm | - | 589 W/m² | - |
| 1778089663 | 22.78° C | 48% | 1012.6 hPa | 0 mm | - | 569 W/m² | - |
| 1778088147 | 21.11° C | 50% | 1012.8 hPa | 0 mm | - | 505 W/m² | - |
| 1778087234 | 21.67° C | 49% | 1012.9 hPa | 0 mm | - | 488 W/m² | - |
| 1778086023 | 20.56° C | 56% | 1013 hPa | 0 mm | - | 420 W/m² | - |
| 1778085720 | 20.56° C | 51% | 1013.3 hPa | 0 mm | - | 398 W/m² | - |
| 1778085416 | 21.11° C | 52% | 1013 hPa | 0 mm | - | 393 W/m² | - |
| 1778084505 | 20.56° C | 51% | 1013.3 hPa | 0 mm | - | 402 W/m² | - |
| 1778081551 | 18.33° C | 55% | 1013.6 hPa | 0 mm | - | 225 W/m² | - |
| 1778080945 | 18.33° C | 57% | 1013.6 hPa | 0 mm | - | 262 W/m² | - |
| 1778080340 | 18.33° C | 56% | 1013.8 hPa | 0 mm | - | 64 W/m² | - |
| 1778079734 | 18.33° C | 56% | 1013.7 hPa | 0 mm | - | 207 W/m² | - |
| 1778079431 | 17.78° C | 55% | 1013.8 hPa | 0 mm | - | 163 W/m² | - |
| 1778078825 | 17.22° C | 58% | 1013.5 hPa | 0 mm | - | 161 W/m² | - |
| 1778077917 | 16.11° C | 62% | 1013.6 hPa | 0 mm | - | 134 W/m² | - |
| 1778075496 | 15° C | 64% | 1013.4 hPa | 0 mm | - | 60 W/m² | - |
| 1778074888 | 15° C | 65% | 1013.4 hPa | 0 mm | - | 49 W/m² | - |
| 1778073677 | 13.89° C | 67% | 1013.2 hPa | 0 mm | - | 31 W/m² | - |
| 1778072465 | 12.78° C | 69% | 1012.9 hPa | 0 mm | - | 17 W/m² | - |
| 1778071558 | 12.22° C | 72% | 1013 hPa | 0 mm | - | 9 W/m² | - |
| 1778070953 | 11.11° C | 75% | 1012.7 hPa | 0 mm | - | 4 W/m² | - |
| 1778068231 | 12.78° C | 69% | 1012.6 hPa | 0 mm | - | 0 W/m² | - |
* Rain latest hour (hover to see other rain measurements)
** Current wind speed in m/s (hover to see current wind gust speed)